KPLN/PLN METAR and TAF weather

Enter ICAO airport designator
Station Type Date Time Source
KPLN METAR 2021/01/27 14:07 UTC NOAA

KPLN 271407Z AUTO 00000KT 2 1/2SM BR BKN012 OVC032 M18/M20 A3030 RMK AO2 T11831200


Station Type Date Time Source
KPLN Decoded METAR 2021/01/27 14:07 UTC NOAA

PELLSTON REGIONAL AIRPORT, MI, United States (KPLN) 45-34N 084-48W 217M
Jan 27, 2021 - 09:07 AM EST / 2021.01.27 1407 UTC
Wind: Calm:0
Visibility: 2 1/2 mile(s):0
Sky conditions: overcast
Weather: mist
Temperature: -0.9 F (-18.3 C)
Dew Point: -4.0 F (-20.0 C)
Relative Humidity: 86%
Pressure (altimeter): 30.3 in. Hg (1026 hPa)
ob: KPLN 271407Z AUTO 00000KT 2 1/2SM BR BKN012 OVC032 M18/M20 A3030 RMK AO2 T11831200
cycle: 14

Station Type Date Time Source
KPLN TAF 2021/01/27 14:54 UTC NOAA

TAF
AMD KPLN 271351Z 2714/2812 33005KT P6SM FEW015
FM271500 35007KT P6SM BKN018
FM271700 35007KT P6SM OVC022
FM272300 34008KT P6SM BKN035
FM280200 34007KT P6SM OVC027
FM280500 34006KT P6SM VCSH OVC027

Example: see airport list